Time;durP1;ratioP1;P1;durP2;ratioP2;P2;SDS_P1;SDS_P2;PMS_P1;PMS_P2;Temp;Humidity;BMP_temperature;BMP_pressure;BME280_temperature;BME280_humidity;BME280_pressure;Samples;Min_cycle;Max_cycle;Signal;HPM_P1;HPM_P2
2022/05/18 00:01:22;;;;;;;;;;;;;;;19.82;54.94;93216.97;2055684;70;20055;-72
2022/05/18 00:03:47;;;;;;;;;;;;;;;19.88;54.23;93225.03;2055350;69;20051;-71
2022/05/18 00:06:13;;;;;;;;;;;;;;;19.89;55.37;93226.50;2055222;70;20421;-73
2022/05/18 00:12:07;;;;;;;;;;;;;;;19.86;55.20;93227.81;2055184;69;20418;-72
2022/05/18 00:18:02;;;;;;;;;;;;;;;19.80;55.19;93219.78;2055233;69;20058;-72
2022/05/18 00:20:27;;;;;;;;;;;;;;;19.75;54.96;93218.91;2055492;70;20098;-72
2022/05/18 00:26:28;;;;;;;;;;;;;;;19.33;55.62;93225.91;2055707;69;20092;-73
2022/05/18 00:28:54;;;;;;;;;;;;;;;19.61;54.72;93224.13;2055777;69;20058;-72
2022/05/18 00:31:20;;;;;;;;;;;;;;;19.56;54.40;93225.31;2055586;70;20054;-72
2022/05/18 00:33:48;;;;;;;;;;;;;;;19.64;54.30;93217.06;2054821;70;20165;-72
2022/05/18 00:36:14;;;;;;;;;;;;;;;19.64;54.80;93222.03;2068421;69;20398;-72
2022/05/18 00:42:16;;;;;;;;;;;;;;;19.62;56.16;93224.84;2055651;69;20173;-72
2022/05/18 00:48:10;;;;;;;;;;;;;;;19.53;54.56;93221.66;2055693;69;20177;-73
2022/05/18 00:54:04;;;;;;;;;;;;;;;19.56;55.11;93228.16;2055586;69;20089;-73
2022/05/18 00:56:35;;;;;;;;;;;;;;;19.45;55.80;93224.22;2055571;70;20487;-73
2022/05/18 00:59:03;;;;;;;;;;;;;;;19.46;55.06;93230.66;2055609;70;20054;-74
2022/05/18 01:01:29;;;;;;;;;;;;;;;19.61;52.20;93229.81;2055620;70;20162;-72
2022/05/18 01:07:26;;;;;;;;;;;;;;;19.34;56.83;93233.81;2055547;69;20135;-72
2022/05/18 01:09:51;;;;;;;;;;;;;;;19.37;56.56;93235.34;2055502;69;20058;-72
2022/05/18 01:15:46;;;;;;;;;;;;;;;19.37;56.18;93229.63;2055447;69;20526;-72
2022/05/18 01:18:13;;;;;;;;;;;;;;;19.41;56.30;93235.50;2055145;70;20513;-73
2022/05/18 01:20:38;;;;;;;;;;;;;;;19.48;55.63;93239.31;2055382;69;20059;-72
2022/05/18 01:23:10;;;;;;;;;;;;;;;19.24;56.55;93230.56;2055490;69;20069;-72
2022/05/18 01:25:45;;;;;;;;;;;;;;;19.22;56.37;93231.25;2068460;69;20449;-72
2022/05/18 01:28:10;;;;;;;;;;;;;;;19.35;55.27;93220.28;2055562;70;20054;-71
2022/05/18 01:30:37;;;;;;;;;;;;;;;19.19;57.08;93223.97;2055524;70;20556;-72
2022/05/18 01:33:05;;;;;;;;;;;;;;;19.18;57.46;93230.34;2055382;70;20053;-71
2022/05/18 01:35:31;;;;;;;;;;;;;;;19.04;56.35;93231.28;2055383;70;20074;-71
2022/05/18 01:37:57;;;;;;;;;;;;;;;18.91;56.05;93232.19;2055525;70;20168;-71
2022/05/18 01:40:30;;;;;;;;;;;;;;;19.18;55.60;93233.22;2055321;70;20147;-71
2022/05/18 01:43:16;;;;;;;;;;;;;;;19.14;56.33;93245.19;2055442;70;20047;-71
2022/05/18 01:45:41;;;;;;;;;;;;;;;19.07;58.04;93237.09;2055628;69;20060;-73
2022/05/18 01:48:13;;;;;;;;;;;;;;;18.99;56.50;93246.06;2068046;69;20478;-72
2022/05/18 01:50:40;;;;;;;;;;;;;;;19.02;57.05;93244.75;2055464;69;20169;-72
2022/05/18 01:53:06;;;;;;;;;;;;;;;18.92;57.33;93250.06;2055498;70;20058;-72
2022/05/18 01:55:32;;;;;;;;;;;;;;;18.85;57.47;93251.94;2055490;70;20488;-72
2022/05/18 01:57:58;;;;;;;;;;;;;;;18.92;56.56;93250.81;2068070;69;20054;-72
2022/05/18 02:00:23;;;;;;;;;;;;;;;18.87;56.93;93252.00;2055320;70;20475;-72
2022/05/18 02:02:49;;;;;;;;;;;;;;;18.59;57.66;93254.47;2055261;69;20078;-71
2022/05/18 02:05:14;;;;;;;;;;;;;;;18.69;57.43;93254.16;2065535;69;20050;-72
2022/05/18 02:11:12;;;;;;;;;;;;;;;18.63;57.98;93262.44;2055281;69;20605;-71
2022/05/18 02:13:38;;;;;;;;;;;;;;;18.62;57.49;93260.97;2055320;69;20054;-71
2022/05/18 02:16:03;;;;;;;;;;;;;;;18.63;57.30;93265.31;2055363;70;20058;-72
2022/05/18 02:18:29;;;;;;;;;;;;;;;18.61;57.65;93260.25;2055072;70;20101;-72
2022/05/18 02:20:54;;;;;;;;;;;;;;;18.48;58.05;93264.00;2055125;70;20141;-72
2022/05/18 02:23:20;;;;;;;;;;;;;;;18.60;57.53;93269.44;2068175;69;20057;-72
2022/05/18 02:29:14;;;;;;;;;;;;;;;18.36;58.63;93260.66;2055414;69;20136;-72
2022/05/18 02:31:39;;;;;;;;;;;;;;;18.34;58.15;93269.84;2068373;69;20070;-71
2022/05/18 02:34:05;;;;;;;;;;;;;;;18.17;59.69;93262.00;2055194;70;20046;-72
2022/05/18 02:36:30;;;;;;;;;;;;;;;18.21;58.48;93260.06;2068410;69;20153;-72
2022/05/18 02:38:55;;;;;;;;;;;;;;;18.04;59.14;93270.03;2068288;69;20066;-73
2022/05/18 02:41:21;;;;;;;;;;;;;;;18.04;58.67;93278.59;2055638;70;20475;-72
2022/05/18 02:43:46;;;;;;;;;;;;;;;17.99;58.93;93279.81;2055804;70;20490;-73
2022/05/18 02:46:14;;;;;;;;;;;;;;;18.02;57.47;93275.66;2055961;70;20057;-75
2022/05/18 02:48:40;;;;;;;;;;;;;;;18.11;58.35;93281.72;2055790;69;20081;-74
2022/05/18 02:51:07;;;;;;;;;;;;;;;18.01;58.62;93277.06;2055990;70;20111;-72
2022/05/18 02:53:32;;;;;;;;;;;;;;;17.97;58.94;93282.56;2055904;69;20061;-73
2022/05/18 02:56:07;;;;;;;;;;;;;;;17.75;59.62;93287.31;2068944;69;20050;-73
2022/05/18 02:58:32;;;;;;;;;;;;;;;17.71;58.97;93285.00;2069055;69;20562;-73
2022/05/18 03:00:58;;;;;;;;;;;;;;;17.68;58.80;93288.38;2055937;69;20200;-73
2022/05/18 03:03:23;;;;;;;;;;;;;;;17.41;59.82;93297.88;2055955;70;20489;-73
2022/05/18 03:05:49;;;;;;;;;;;;;;;17.73;58.37;93302.19;2056121;69;20109;-74
2022/05/18 03:08:14;;;;;;;;;;;;;;;17.65;59.42;93307.50;2055742;70;20119;-75
2022/05/18 03:10:41;;;;;;;;;;;;;;;17.66;58.74;93300.44;2068957;69;20165;-76
2022/05/18 03:13:07;;;;;;;;;;;;;;;17.49;60.05;93298.22;2055951;69;20057;-74
2022/05/18 03:15:33;;;;;;;;;;;;;;;17.37;60.13;93306.97;2055949;70;20065;-74
2022/05/18 03:17:59;;;;;;;;;;;;;;;17.45;59.41;93307.31;2055902;70;20518;-74
2022/05/18 03:25:53;;;;;;;;;;;;;;;17.16;60.57;93313.09;2055963;70;20421;-73
2022/05/18 03:28:18;;;;;;;;;;;;;;;17.27;59.48;93315.78;2055997;70;20474;-74
2022/05/18 03:30:44;;;;;;;;;;;;;;;17.22;59.89;93319.78;2056010;70;20086;-75
2022/05/18 03:33:09;;;;;;;;;;;;;;;16.86;61.51;93323.78;2055547;69;20077;-73
2022/05/18 03:35:35;;;;;;;;;;;;;;;16.98;60.23;93327.22;2055847;70;20115;-75
2022/05/18 03:38:04;;;;;;;;;;;;;;;16.92;60.38;93330.50;2055784;70;20050;-73
2022/05/18 03:40:29;;;;;;;;;;;;;;;16.85;60.66;93334.41;2055864;69;20106;-73
2022/05/18 03:42:55;;;;;;;;;;;;;;;16.94;59.84;93336.28;2055981;69;20086;-73
2022/05/18 03:45:20;;;;;;;;;;;;;;;16.88;60.13;93352.31;2055858;69;20510;-73
2022/05/18 03:47:46;;;;;;;;;;;;;;;16.89;59.28;93346.00;2055736;70;20059;-73
2022/05/18 03:50:13;;;;;;;;;;;;;;;16.85;59.25;93354.31;2055711;70;20058;-73
2022/05/18 03:52:38;;;;;;;;;;;;;;;17.04;57.18;93358.78;2055821;70;20141;-74
2022/05/18 03:55:04;;;;;;;;;;;;;;;16.72;59.67;93357.97;2055861;70;20137;-75
2022/05/18 03:57:29;;;;;;;;;;;;;;;16.96;58.66;93369.78;2068545;69;20066;-74
2022/05/18 03:59:55;;;;;;;;;;;;;;;16.82;59.42;93375.53;2055713;69;20474;-74
2022/05/18 04:02:20;;;;;;;;;;;;;;;16.70;60.90;93389.13;2056026;70;20153;-73
2022/05/18 04:04:46;;;;;;;;;;;;;;;16.75;60.40;93382.28;2055686;70;20425;-74
2022/05/18 04:07:11;;;;;;;;;;;;;;;16.74;60.78;93375.13;2055804;70;20062;-73
2022/05/18 04:09:36;;;;;;;;;;;;;;;16.62;61.57;93386.59;2055812;70;20047;-73
2022/05/18 04:12:02;;;;;;;;;;;;;;;16.76;59.39;93381.63;2055893;70;20058;-73
2022/05/18 04:14:27;;;;;;;;;;;;;;;16.71;61.55;93390.56;2055740;70;20050;-73
2022/05/18 04:16:53;;;;;;;;;;;;;;;16.62;60.42;93383.03;2055885;70;20062;-74
2022/05/18 04:19:18;;;;;;;;;;;;;;;16.71;60.43;93394.16;2055538;70;20054;-73
2022/05/18 04:21:44;;;;;;;;;;;;;;;16.74;60.22;93389.34;2055518;69;20054;-75
2022/05/18 04:24:09;;;;;;;;;;;;;;;16.43;62.15;93398.44;2055761;70;20159;-75
2022/05/18 04:26:35;;;;;;;;;;;;;;;16.50;61.65;93403.78;2055904;69;20070;-74
2022/05/18 04:29:01;;;;;;;;;;;;;;;16.43;62.23;93407.69;2055737;70;20054;-74
2022/05/18 04:31:27;;;;;;;;;;;;;;;16.60;60.88;93400.72;2055711;70;20149;-74
2022/05/18 04:33:53;;;;;;;;;;;;;;;16.50;60.83;93400.94;2055542;70;20097;-74
2022/05/18 04:36:18;;;;;;;;;;;;;;;16.46;61.51;93412.13;2068690;69;20086;-73
2022/05/18 04:42:12;;;;;;;;;;;;;;;16.59;61.51;93426.94;2055757;69;20083;-73
2022/05/18 04:48:06;;;;;;;;;;;;;;;16.45;61.84;93430.53;2055716;69;20130;-76
2022/05/18 04:50:32;;;;;;;;;;;;;;;16.61;61.00;93432.72;2055847;70;20141;-75
2022/05/18 04:52:57;;;;;;;;;;;;;;;16.41;62.85;93429.59;2055872;69;20115;-75
2022/05/18 04:55:22;;;;;;;;;;;;;;;16.47;62.27;93439.16;2055683;69;20062;-73
2022/05/18 04:57:48;;;;;;;;;;;;;;;16.49;62.28;93447.81;2055464;70;20050;-74
2022/05/18 05:00:14;;;;;;;;;;;;;;;16.37;62.34;93454.97;2055582;69;20046;-74
2022/05/18 05:02:39;;;;;;;;;;;;;;;16.55;58.44;93447.38;2055615;70;20563;-73
2022/05/18 05:05:05;;;;;;;;;;;;;;;16.35;59.22;93452.75;2055676;69;20082;-76
2022/05/18 05:07:31;;;;;;;;;;;;;;;16.32;61.53;93456.88;2055479;70;20085;-76
2022/05/18 05:09:56;;;;;;;;;;;;;;;16.45;61.29;93455.38;2055603;70;20406;-74
2022/05/18 05:12:21;;;;;;;;;;;;;;;16.27;62.47;93455.91;2055639;70;20413;-74
2022/05/18 05:14:47;;;;;;;;;;;;;;;16.33;61.76;93451.91;2055652;70;20050;-76
2022/05/18 05:17:12;;;;;;;;;;;;;;;16.33;62.54;93452.66;2055905;70;20553;-73
2022/05/18 05:23:06;;;;;;;;;;;;;;;16.32;63.27;93453.28;2053287;70;20557;-74
2022/05/18 05:25:31;;;;;;;;;;;;;;;16.31;63.30;93452.56;2055678;70;20589;-75
2022/05/18 05:27:57;;;;;;;;;;;;;;;16.36;63.30;93459.91;2055463;70;20058;-76
2022/05/18 05:30:22;;;;;;;;;;;;;;;16.44;62.42;93465.25;2055587;70;20480;-77
2022/05/18 05:32:48;;;;;;;;;;;;;;;16.43;62.92;93463.78;2068562;69;20082;-74
2022/05/18 05:35:13;;;;;;;;;;;;;;;16.46;62.44;93462.53;2055808;70;20093;-76
2022/05/18 05:37:39;;;;;;;;;;;;;;;16.44;63.72;93468.84;2055722;70;20160;-76
2022/05/18 05:40:05;;;;;;;;;;;;;;;16.43;62.93;93472.31;2056086;70;20493;-75
2022/05/18 05:42:30;;;;;;;;;;;;;;;16.39;62.80;93472.84;2056386;70;20070;-74
2022/05/18 05:44:56;;;;;;;;;;;;;;;16.51;61.35;93476.31;2056492;69;20050;-76
2022/05/18 05:47:21;;;;;;;;;;;;;;;16.44;63.20;93468.84;2057395;70;20100;-76
2022/05/18 05:53:15;;;;;;;;;;;;;;;16.55;63.15;93466.53;2057305;69;20134;-78
2022/05/18 05:55:40;;;;;;;;;;;;;;;16.54;63.44;93468.63;2058286;70;20108;-74
2022/05/18 05:58:06;;;;;;;;;;;;;;;16.47;63.51;93467.59;2058183;70;20056;-72
2022/05/18 06:00:31;;;;;;;;;;;;;;;16.59;62.14;93475.28;2057910;69;20023;-73
2022/05/18 06:02:57;;;;;;;;;;;;;;;16.59;62.55;93475.28;2057483;70;20505;-73
2022/05/18 06:08:50;;;;;;;;;;;;;;;16.61;62.72;93467.56;2056972;69;20093;-75
2022/05/18 06:11:16;;;;;;;;;;;;;;;16.57;63.00;93470.19;2056316;70;20042;-74
2022/05/18 06:13:41;;;;;;;;;;;;;;;16.72;61.61;93475.28;2056350;69;20141;-75
2022/05/18 06:16:09;;;;;;;;;;;;;;;16.80;62.80;93477.78;2056320;69;20515;-75
2022/05/18 06:18:35;;;;;;;;;;;;;;;16.93;61.25;93477.00;2056005;70;20145;-76
2022/05/18 06:21:01;;;;;;;;;;;;;;;16.84;63.64;93477.97;2056267;69;20050;-75
2022/05/18 06:23:26;;;;;;;;;;;;;;;17.00;62.68;93475.22;2056254;69;20140;-75
2022/05/18 06:25:52;;;;;;;;;;;;;;;16.97;63.36;93485.75;2056096;70;20054;-76
2022/05/18 06:28:18;;;;;;;;;;;;;;;17.18;62.09;93483.88;2056049;70;20470;-75
2022/05/18 06:30:43;;;;;;;;;;;;;;;17.26;61.63;93482.19;2069150;69;20051;-76
2022/05/18 06:33:10;;;;;;;;;;;;;;;17.37;61.17;93477.72;2056132;70;20140;-75
2022/05/18 06:35:35;;;;;;;;;;;;;;;17.56;60.48;93478.59;2055988;70;20143;-75
2022/05/18 06:38:08;;;;;;;;;;;;;;;17.66;60.19;93476.97;2055988;70;20141;-76
2022/05/18 06:43:20;;;;;;;;;;;;;;;17.82;61.24;93476.25;2056062;70;20070;-75
2022/05/18 06:45:46;;;;;;;;;;;;;;;17.94;57.96;93479.69;2056206;70;20123;-76
2022/05/18 06:48:11;;;;;;;;;;;;;;;18.18;57.17;93472.22;2055921;70;20504;-75
2022/05/18 06:50:37;;;;;;;;;;;;;;;18.19;60.16;93472.97;2056107;70;20093;-75
2022/05/18 06:53:02;;;;;;;;;;;;;;;18.32;56.07;93466.41;2055964;70;20050;-74
2022/05/18 06:55:28;;;;;;;;;;;;;;;18.38;55.92;93469.56;2056065;70;20042;-75
2022/05/18 06:57:53;;;;;;;;;;;;;;;18.56;55.03;93463.19;2055895;69;20054;-75
2022/05/18 07:00:19;;;;;;;;;;;;;;;18.56;57.31;93468.88;2056004;70;20089;-75
2022/05/18 07:02:45;;;;;;;;;;;;;;;18.60;57.57;93471.91;2055836;69;20140;-76
2022/05/18 07:05:10;;;;;;;;;;;;;;;18.75;57.07;93474.75;2055946;70;20063;-76
2022/05/18 07:07:37;;;;;;;;;;;;;;;18.89;56.33;93468.91;2056110;70;20114;-75
2022/05/18 07:10:03;;;;;;;;;;;;;;;18.89;57.30;93465.34;2056045;70;20054;-76
2022/05/18 07:12:29;;;;;;;;;;;;;;;18.92;58.03;93461.91;2055917;70;20056;-74
2022/05/18 07:14:54;;;;;;;;;;;;;;;18.95;57.27;93460.59;2055907;69;20145;-74
2022/05/18 07:17:20;;;;;;;;;;;;;;;18.97;56.78;93457.84;2056048;70;20176;-74
2022/05/18 07:19:45;;;;;;;;;;;;;;;19.12;56.13;93464.16;2068805;69;20046;-75
2022/05/18 07:22:12;;;;;;;;;;;;;;;19.17;55.26;93457.94;2055904;69;20481;-74
2022/05/18 07:24:37;;;;;;;;;;;;;;;19.35;55.71;93462.94;2068890;69;20081;-74
2022/05/18 07:27:03;;;;;;;;;;;;;;;19.44;55.67;93461.88;2055921;70;20485;-75
2022/05/18 07:29:29;;;;;;;;;;;;;;;19.37;55.48;93460.88;2055914;70;20046;-76
2022/05/18 07:32:12;;;;;;;;;;;;;;;19.39;57.23;93463.81;2055846;70;20049;-74
2022/05/18 07:34:38;;;;;;;;;;;;;;;19.66;54.45;93462.78;2068830;69;20050;-74
2022/05/18 07:37:04;;;;;;;;;;;;;;;19.68;54.67;93460.00;2055809;69;20057;-75
2022/05/18 07:39:30;;;;;;;;;;;;;;;19.44;53.89;93454.03;2055702;70;20039;-75
2022/05/18 07:41:56;;;;;;;;;;;;;;;19.91;53.34;93458.72;2055695;70;20050;-76
2022/05/18 07:44:21;;;;;;;;;;;;;;;20.15;53.23;93461.03;2055780;70;20066;-76
2022/05/18 07:46:47;;;;;;;;;;;;;;;20.50;52.09;93452.38;2055675;70;20054;-76
2022/05/18 07:49:13;;;;;;;;;;;;;;;20.80;51.87;93457.69;2055357;69;20061;-76
2022/05/18 07:51:38;;;;;;;;;;;;;;;21.33;51.60;93444.44;2055719;70;20137;-76
2022/05/18 07:54:04;;;;;;;;;;;;;;;21.48;48.45;93449.22;2056001;70;20142;-76
2022/05/18 07:59:59;;;;;;;;;;;;;;;22.22;47.87;93447.25;2055642;69;20138;-76
2022/05/18 08:02:25;;;;;;;;;;;;;;;22.52;47.64;93440.91;2055811;69;20058;-75
2022/05/18 08:04:51;;;;;;;;;;;;;;;22.82;47.11;93441.75;2055700;69;20058;-76
2022/05/18 08:07:17;;;;;;;;;;;;;;;22.40;46.11;93438.41;2068717;69;20112;-76
2022/05/18 08:15:10;;;;;;;;;;;;;;;23.13;45.24;93433.22;2055772;70;20425;-76
2022/05/18 08:21:04;;;;;;;;;;;;;;;24.38;43.10;93429.00;2055779;69;20053;-77
2022/05/18 08:23:30;;;;;;;;;;;;;;;24.29;42.88;93433.09;2055593;69;20090;-76
2022/05/18 08:25:56;;;;;;;;;;;;;;;23.31;43.88;93428.66;2055798;70;20115;-75
2022/05/18 08:28:21;;;;;;;;;;;;;;;23.86;43.20;93419.91;2055617;70;20046;-76
2022/05/18 08:30:47;;;;;;;;;;;;;;;24.36;43.18;93417.41;2055715;69;20501;-76
2022/05/18 08:33:12;;;;;;;;;;;;;;;24.94;40.02;93422.16;2055648;70;20051;-75
2022/05/18 08:35:39;;;;;;;;;;;;;;;24.27;42.42;93416.50;2055877;70;20082;-76
2022/05/18 08:38:05;;;;;;;;;;;;;;;25.41;41.92;93417.25;2055605;70;20055;-76
2022/05/18 08:40:40;;;;;;;;;;;;;;;24.89;40.78;93421.34;2055726;69;20140;-76
2022/05/18 08:43:07;;;;;;;;;;;;;;;25.17;40.28;93420.44;2055676;70;20046;-77
2022/05/18 08:45:38;;;;;;;;;;;;;;;25.73;40.28;93422.81;2055775;70;20053;-76
2022/05/18 08:48:05;;;;;;;;;;;;;;;26.18;40.30;93412.66;2055563;69;20114;-75
2022/05/18 08:50:31;;;;;;;;;;;;;;;26.43;39.43;93410.09;2055680;70;20073;-76
2022/05/18 08:53:16;;;;;;;;;;;;;;;26.42;38.71;93409.38;2055387;69;20055;-77
2022/05/18 08:56:08;;;;;;;;;;;;;;;27.56;37.36;93409.88;2055630;69;20085;-76
2022/05/18 08:58:53;;;;;;;;;;;;;;;26.13;39.47;93411.16;2055609;69;20478;-75
2022/05/18 09:01:23;;;;;;;;;;;;;;;26.59;38.77;93408.16;2055751;70;20498;-75
2022/05/18 09:03:53;;;;;;;;;;;;;;;26.68;37.61;93411.16;2055573;70;20550;-73
2022/05/18 09:06:30;;;;;;;;;;;;;;;27.43;38.00;93402.56;2055685;70;20120;-75
2022/05/18 09:11:46;;;;;;;;;;;;;;;27.44;36.54;93395.31;2055897;70;20471;-74
2022/05/18 09:14:14;;;;;;;;;;;;;;;26.76;37.23;93393.94;2055651;69;20086;-74
2022/05/18 09:16:48;;;;;;;;;;;;;;;27.90;36.03;93394.25;2055705;70;20046;-75
2022/05/18 09:19:31;;;;;;;;;;;;;;;27.93;37.57;93399.34;2068450;69;20051;-74
2022/05/18 09:22:03;;;;;;;;;;;;;;;28.41;36.03;93392.44;2055516;69;20042;-75
2022/05/18 09:24:28;;;;;;;;;;;;;;;28.83;35.95;93388.97;2055690;70;20116;-77
2022/05/18 09:27:02;;;;;;;;;;;;;;;27.42;34.61;93380.88;2055757;70;20062;-74
2022/05/18 09:29:28;;;;;;;;;;;;;;;28.48;34.60;93381.59;2055587;70;20050;-77
2022/05/18 09:32:09;;;;;;;;;;;;;;;28.57;32.33;93383.78;2055672;70;20057;-76
2022/05/18 09:34:36;;;;;;;;;;;;;;;28.98;32.55;93386.84;2055471;70;20126;-77
2022/05/18 09:37:05;;;;;;;;;;;;;;;29.27;31.24;93384.00;2055636;70;20053;-76
2022/05/18 09:39:33;;;;;;;;;;;;;;;29.18;34.26;93382.53;2055525;69;20081;-77
2022/05/18 09:42:07;;;;;;;;;;;;;;;28.23;32.75;93377.84;2055701;70;20050;-74
2022/05/18 09:44:41;;;;;;;;;;;;;;;28.39;33.23;93372.13;2055513;70;20057;-74
2022/05/18 09:47:07;;;;;;;;;;;;;;;29.13;31.51;93370.94;2055540;69;20053;-73
2022/05/18 09:49:39;;;;;;;;;;;;;;;28.99;30.41;93365.09;2055010;70;20116;-75
2022/05/18 09:52:05;;;;;;;;;;;;;;;28.99;30.98;93361.50;2055522;69;20046;-75
2022/05/18 09:54:31;;;;;;;;;;;;;;;29.86;30.70;93363.72;2055682;69;20072;-75
2022/05/18 09:57:17;;;;;;;;;;;;;;;29.97;27.47;93361.53;2055583;69;20119;-75
2022/05/18 09:59:52;;;;;;;;;;;;;;;29.96;27.21;93362.97;2055394;69;20054;-75
2022/05/18 10:07:51;;;;;;;;;;;;;;;30.61;26.68;93346.13;2055625;70;20070;-78
2022/05/18 10:10:20;;;;;;;;;;;;;;;31.22;27.24;93339.25;2055475;70;20081;-75
2022/05/18 10:12:47;;;;;;;;;;;;;;;30.90;26.50;93333.66;2055454;70;20057;-76
2022/05/18 10:15:30;;;;;;;;;;;;;;;31.86;25.88;93330.78;2068611;69;20065;-75
2022/05/18 10:18:00;;;;;;;;;;;;;;;32.16;23.78;93326.81;2055494;69;20050;-75
2022/05/18 10:20:36;;;;;;;;;;;;;;;32.18;24.50;93326.09;2068508;69;20047;-75
2022/05/18 10:23:03;;;;;;;;;;;;;;;31.77;22.69;93318.47;2059568;69;20171;-74
2022/05/18 10:25:32;;;;;;;;;;;;;;;31.78;23.17;93319.19;2048989;70;20521;-75
2022/05/18 10:28:01;;;;;;;;;;;;;;;31.43;23.36;93319.50;2048910;70;20098;-75
2022/05/18 10:30:28;;;;;;;;;;;;;;;32.18;22.74;93311.53;2048977;70;20156;-75
2022/05/18 10:32:54;;;;;;;;;;;;;;;32.91;20.35;93315.78;2048556;70;20062;-75
2022/05/18 10:35:32;;;;;;;;;;;;;;;33.36;21.46;93310.00;2048828;70;20054;-77
2022/05/18 10:38:03;;;;;;;;;;;;;;;34.25;21.50;93309.97;2048766;70;20066;-78
2022/05/18 10:40:30;;;;;;;;;;;;;;;33.58;19.10;93314.78;2045559;70;20063;-75
2022/05/18 10:43:11;;;;;;;;;;;;;;;34.48;19.16;93311.00;2048353;70;20506;-75
2022/05/18 10:45:37;;;;;;;;;;;;;;;34.36;19.15;93303.19;2048873;70;20050;-75
2022/05/18 10:48:13;;;;;;;;;;;;;;;35.60;18.94;93305.63;2048758;70;20047;-75
2022/05/18 10:50:40;;;;;;;;;;;;;;;33.49;19.08;93293.75;2048759;70;20059;-76
2022/05/18 10:53:12;;;;;;;;;;;;;;;35.24;19.16;93292.56;2048695;70;20062;-75
2022/05/18 10:55:50;;;;;;;;;;;;;;;37.11;17.20;93297.88;2048812;70;20055;-74
2022/05/18 10:58:26;;;;;;;;;;;;;;;37.27;16.60;93294.47;2048355;70;20496;-75
2022/05/18 11:00:52;;;;;;;;;;;;;;;37.98;14.81;93296.59;2048497;70;20411;-75
2022/05/18 11:03:26;;;;;;;;;;;;;;;38.79;15.38;93298.94;2049159;70;20522;-76
2022/05/18 11:05:54;;;;;;;;;;;;;;;42.57;13.87;93303.69;2049337;70;20526;-77
2022/05/18 11:08:21;;;;;;;;;;;;;;;41.95;12.75;93300.13;2049319;70;20046;-76
2022/05/18 11:10:59;;;;;;;;;;;;;;;43.39;13.43;93291.88;2049300;70;20047;-75
2022/05/18 11:13:27;;;;;;;;;;;;;;;44.84;12.35;93288.69;2049210;70;20116;-75
2022/05/18 11:15:59;;;;;;;;;;;;;;;43.47;11.51;93284.78;2049291;70;20479;-77
2022/05/18 11:18:38;;;;;;;;;;;;;;;42.03;11.31;93287.19;2048610;70;20046;-77
2022/05/18 11:21:07;;;;;;;;;;;;;;;42.56;11.29;93288.16;2049309;70;20090;-77
2022/05/18 11:23:34;;;;;;;;;;;;;;;46.53;11.11;93289.00;2053854;70;20089;-75
2022/05/18 11:26:11;;;;;;;;;;;;;;;46.03;10.83;93293.81;2056056;70;20409;-76
2022/05/18 11:28:54;;;;;;;;;;;;;;;44.86;11.08;93292.28;2055748;70;20115;-73
2022/05/18 11:31:33;;;;;;;;;;;;;;;40.59;13.32;93281.31;2055534;70;20145;-77
2022/05/18 11:34:12;;;;;;;;;;;;;;;38.57;13.45;93274.69;2055676;69;20418;-76
2022/05/18 11:36:45;;;;;;;;;;;;;;;38.02;15.32;93258.28;2055828;70;20042;-75
2022/05/18 11:39:29;;;;;;;;;;;;;;;36.20;14.83;93248.44;2055715;69;20058;-73
2022/05/18 11:45:22;;;;;;;;;;;;;;;32.52;18.18;93244.13;2055764;69;20091;-74
2022/05/18 11:51:16;;;;;;;;;;;;;;;31.18;18.81;93233.88;2055543;69;20271;-74
2022/05/18 11:54:02;;;;;;;;;;;;;;;34.17;19.84;93237.81;2055330;70;20604;-74
2022/05/18 11:56:46;;;;;;;;;;;;;;;37.59;14.72;93242.09;2055812;69;20058;-73
2022/05/18 11:59:40;;;;;;;;;;;;;;;32.85;18.82;93232.75;2055722;70;20219;-75
2022/05/18 12:02:16;;;;;;;;;;;;;;;33.18;18.30;93238.09;2068619;69;20058;-75
2022/05/18 12:05:00;;;;;;;;;;;;;;;33.13;19.35;93228.69;2055796;69;20070;-74
2022/05/18 12:07:31;;;;;;;;;;;;;;;32.81;18.03;93226.25;2055789;70;20086;-76
2022/05/18 12:09:57;;;;;;;;;;;;;;;33.93;19.39;93217.81;2055903;70;20074;-75
2022/05/18 12:12:46;;;;;;;;;;;;;;;32.54;18.53;93217.88;2055675;70;20046;-76
2022/05/18 12:15:29;;;;;;;;;;;;;;;33.16;18.91;93217.69;2055817;70;20093;-75
2022/05/18 12:17:55;;;;;;;;;;;;;;;33.11;19.43;93216.31;2055828;69;20062;-76
2022/05/18 12:20:20;;;;;;;;;;;;;;;34.01;18.84;93215.50;2055869;70;20196;-76
2022/05/18 12:22:50;;;;;;;;;;;;;;;41.59;12.70;93232.41;2055768;69;20471;-75
2022/05/18 12:25:19;;;;;;;;;;;;;;;43.68;11.77;93236.22;2055855;69;20053;-74
2022/05/18 12:27:45;;;;;;;;;;;;;;;44.93;10.19;93245.06;2055697;70;20064;-76
2022/05/18 12:30:14;;;;;;;;;;;;;;;44.51;11.85;93231.31;2055766;69;20080;-75
2022/05/18 12:32:40;;;;;;;;;;;;;;;45.19;11.36;93239.03;2055596;70;20049;-75
2022/05/18 12:35:10;;;;;;;;;;;;;;;45.33;9.81;93238.84;2055684;70;20183;-75
2022/05/18 12:38:01;;;;;;;;;;;;;;;44.30;10.22;93237.75;2055572;69;20047;-75
2022/05/18 12:44:03;;;;;;;;;;;;;;;43.46;10.89;93217.47;2055769;69;20429;-74
2022/05/18 12:46:51;;;;;;;;;;;;;;;44.47;10.66;93216.72;2055740;70;20575;-75
2022/05/18 12:49:28;;;;;;;;;;;;;;;42.31;10.95;93217.72;2055532;70;20054;-74
2022/05/18 12:52:05;;;;;;;;;;;;;;;39.51;13.48;93202.66;2055765;69;20057;-74
2022/05/18 12:54:44;;;;;;;;;;;;;;;35.85;15.19;93190.78;2055676;69;20062;-76
2022/05/18 12:57:16;;;;;;;;;;;;;;;36.35;15.13;93188.66;2055688;69;20073;-74
2022/05/18 12:59:55;;;;;;;;;;;;;;;34.86;15.93;93180.06;2055550;70;20425;-75
2022/05/18 13:02:38;;;;;;;;;;;;;;;34.46;17.32;93175.84;2055076;70;20058;-75
2022/05/18 13:05:31;;;;;;;;;;;;;;;35.30;16.06;93178.28;2055539;70;20115;-76
2022/05/18 13:08:03;;;;;;;;;;;;;;;33.35;17.21;93174.34;2055675;69;20429;-76
2022/05/18 13:10:32;;;;;;;;;;;;;;;33.86;17.74;93170.47;2055867;70;20047;-76
2022/05/18 13:13:04;;;;;;;;;;;;;;;32.73;17.74;93162.94;2055633;70;20046;-75
2022/05/18 13:15:48;;;;;;;;;;;;;;;32.64;18.40;93158.72;2055667;70;20060;-75
2022/05/18 13:18:16;;;;;;;;;;;;;;;32.51;18.98;93154.53;2055529;69;20062;-75
2022/05/18 13:20:42;;;;;;;;;;;;;;;32.29;17.95;93158.47;2068629;69;20058;-74
2022/05/18 13:23:20;;;;;;;;;;;;;;;31.43;18.80;93147.13;2055579;69;20058;-75
2022/05/18 13:25:48;;;;;;;;;;;;;;;32.06;20.38;93150.03;2055634;69;20054;-76
2022/05/18 13:28:14;;;;;;;;;;;;;;;32.69;19.83;93150.63;2055609;70;20437;-76
2022/05/18 13:30:56;;;;;;;;;;;;;;;32.66;19.51;93146.31;2055632;70;20057;-78
2022/05/18 13:33:23;;;;;;;;;;;;;;;32.66;20.37;93149.22;2055543;70;20061;-78
2022/05/18 13:35:49;;;;;;;;;;;;;;;32.49;20.83;93146.56;2055543;70;20486;-75
2022/05/18 13:38:21;;;;;;;;;;;;;;;31.25;20.55;93142.94;2055671;70;20054;-77
2022/05/18 13:40:48;;;;;;;;;;;;;;;31.35;20.39;93134.13;2068529;69;20113;-76
2022/05/18 13:43:14;;;;;;;;;;;;;;;30.37;21.26;93134.91;2055624;70;20114;-78
2022/05/18 13:49:10;;;;;;;;;;;;;;;30.48;20.59;93126.16;2055485;69;20049;-75
2022/05/18 13:51:41;;;;;;;;;;;;;;;30.51;21.40;93121.75;2055569;70;20192;-76
2022/05/18 13:54:09;;;;;;;;;;;;;;;30.46;21.01;93121.06;2055446;69;20065;-75
2022/05/18 13:56:40;;;;;;;;;;;;;;;29.77;21.85;93121.47;2055554;70;20147;-77
2022/05/18 13:59:11;;;;;;;;;;;;;;;29.97;20.71;93118.47;2055400;70;20057;-76
2022/05/18 14:01:45;;;;;;;;;;;;;;;29.48;21.14;93126.63;2055430;70;20058;-75
2022/05/18 14:04:12;;;;;;;;;;;;;;;29.95;21.03;93121.38;2055421;69;20139;-75
2022/05/18 14:06:38;;;;;;;;;;;;;;;30.01;20.94;93115.53;2055468;70;20434;-76
2022/05/18 14:09:05;;;;;;;;;;;;;;;29.58;20.67;93118.63;2055205;70;20145;-75
2022/05/18 14:11:32;;;;;;;;;;;;;;;29.88;21.52;93119.97;2055213;70;20161;-75
2022/05/18 14:13:59;;;;;;;;;;;;;;;29.52;21.32;93112.13;2055390;69;20054;-74
2022/05/18 14:17:02;;;;;;;;;;;;;;;28.79;21.41;93110.09;2055419;70;20051;-74
2022/05/18 14:19:34;;;;;;;;;;;;;;;29.24;22.41;93115.84;2057272;69;20054;-74
2022/05/18 14:21:59;;;;;;;;;;;;;;;29.20;22.48;93113.66;2057303;69;20050;-74
2022/05/18 14:24:32;;;;;;;;;;;;;;;29.31;22.29;93115.06;2057623;69;20045;-74
2022/05/18 14:27:07;;;;;;;;;;;;;;;29.55;20.18;93102.72;2057559;69;20057;-74
2022/05/18 14:29:33;;;;;;;;;;;;;;;29.41;22.26;93102.00;2057587;69;20077;-74
2022/05/18 14:32:02;;;;;;;;;;;;;;;29.59;22.38;93096.88;2057516;69;20093;-73